sensor_id;sensor_type;location;lat;lon;timestamp;P1;durP1;ratioP1;P2;durP2;ratioP2
16665;SDS011;8446;50.998;6.250;2023-05-07T00:02:16;15.77;;;11.60;;
16665;SDS011;8446;50.998;6.250;2023-05-07T00:04:44;16.37;;;11.60;;
16665;SDS011;8446;50.998;6.250;2023-05-07T00:07:11;20.27;;;14.90;;
16665;SDS011;8446;50.998;6.250;2023-05-07T00:09:38;18.90;;;12.87;;
16665;SDS011;8446;50.998;6.250;2023-05-07T00:12:05;20.10;;;13.67;;
16665;SDS011;8446;50.998;6.250;2023-05-07T00:14:32;20.93;;;12.27;;
16665;SDS011;8446;50.998;6.250;2023-05-07T00:16:58;21.53;;;12.90;;
16665;SDS011;8446;50.998;6.250;2023-05-07T00:19:25;24.20;;;13.00;;
16665;SDS011;8446;50.998;6.250;2023-05-07T00:21:53;21.80;;;11.80;;
16665;SDS011;8446;50.998;6.250;2023-05-07T00:24:20;22.00;;;13.37;;
16665;SDS011;8446;50.998;6.250;2023-05-07T00:26:47;15.70;;;12.60;;
16665;SDS011;8446;50.998;6.250;2023-05-07T00:29:14;21.33;;;12.93;;
16665;SDS011;8446;50.998;6.250;2023-05-07T00:31:41;19.23;;;13.53;;
16665;SDS011;8446;50.998;6.250;2023-05-07T00:34:08;19.93;;;12.63;;
16665;SDS011;8446;50.998;6.250;2023-05-07T00:36:35;21.90;;;13.00;;
16665;SDS011;8446;50.998;6.250;2023-05-07T00:39:03;19.60;;;13.53;;
16665;SDS011;8446;50.998;6.250;2023-05-07T00:41:30;23.27;;;14.53;;
16665;SDS011;8446;50.998;6.250;2023-05-07T00:43:57;19.53;;;13.50;;
16665;SDS011;8446;50.998;6.250;2023-05-07T00:46:23;23.90;;;14.20;;
16665;SDS011;8446;50.998;6.250;2023-05-07T00:48:51;19.70;;;14.43;;
16665;SDS011;8446;50.998;6.250;2023-05-07T00:51:18;18.33;;;13.60;;
16665;SDS011;8446;50.998;6.250;2023-05-07T00:53:45;20.40;;;12.70;;
16665;SDS011;8446;50.998;6.250;2023-05-07T00:56:14;15.93;;;11.00;;
16665;SDS011;8446;50.998;6.250;2023-05-07T00:58:41;18.47;;;12.97;;
16665;SDS011;8446;50.998;6.250;2023-05-07T01:01:07;18.90;;;12.10;;
16665;SDS011;8446;50.998;6.250;2023-05-07T01:03:34;22.90;;;11.90;;
16665;SDS011;8446;50.998;6.250;2023-05-07T01:06:01;19.80;;;13.00;;
16665;SDS011;8446;50.998;6.250;2023-05-07T01:08:29;17.70;;;11.47;;
16665;SDS011;8446;50.998;6.250;2023-05-07T01:11:00;16.07;;;11.20;;
16665;SDS011;8446;50.998;6.250;2023-05-07T01:13:28;18.17;;;13.37;;
16665;SDS011;8446;50.998;6.250;2023-05-07T01:15:56;15.57;;;11.10;;
16665;SDS011;8446;50.998;6.250;2023-05-07T01:18:22;15.70;;;11.00;;
16665;SDS011;8446;50.998;6.250;2023-05-07T01:20:51;21.07;;;11.17;;
16665;SDS011;8446;50.998;6.250;2023-05-07T01:23:19;16.17;;;11.67;;
16665;SDS011;8446;50.998;6.250;2023-05-07T01:25:50;16.67;;;11.87;;
16665;SDS011;8446;50.998;6.250;2023-05-07T01:28:18;19.30;;;11.40;;
16665;SDS011;8446;50.998;6.250;2023-05-07T01:30:45;17.50;;;11.53;;
16665;SDS011;8446;50.998;6.250;2023-05-07T01:33:18;16.90;;;11.80;;
16665;SDS011;8446;50.998;6.250;2023-05-07T01:35:48;22.87;;;13.23;;
16665;SDS011;8446;50.998;6.250;2023-05-07T01:38:20;16.20;;;11.13;;
16665;SDS011;8446;50.998;6.250;2023-05-07T01:40:48;16.30;;;11.90;;
16665;SDS011;8446;50.998;6.250;2023-05-07T01:43:16;20.67;;;12.93;;
16665;SDS011;8446;50.998;6.250;2023-05-07T01:45:43;17.63;;;11.70;;
16665;SDS011;8446;50.998;6.250;2023-05-07T01:48:13;17.77;;;12.80;;
16665;SDS011;8446;50.998;6.250;2023-05-07T01:50:41;16.27;;;12.73;;
16665;SDS011;8446;50.998;6.250;2023-05-07T01:53:08;18.67;;;12.20;;
16665;SDS011;8446;50.998;6.250;2023-05-07T01:55:37;15.33;;;10.67;;
16665;SDS011;8446;50.998;6.250;2023-05-07T01:58:05;17.23;;;10.80;;
16665;SDS011;8446;50.998;6.250;2023-05-07T02:00:31;17.43;;;11.50;;
16665;SDS011;8446;50.998;6.250;2023-05-07T02:02:58;14.53;;;10.20;;
16665;SDS011;8446;50.998;6.250;2023-05-07T02:05:25;14.10;;;10.23;;
16665;SDS011;8446;50.998;6.250;2023-05-07T02:07:52;16.83;;;11.37;;
16665;SDS011;8446;50.998;6.250;2023-05-07T02:10:19;19.00;;;11.43;;
16665;SDS011;8446;50.998;6.250;2023-05-07T02:12:47;15.60;;;12.00;;
16665;SDS011;8446;50.998;6.250;2023-05-07T02:15:14;24.10;;;12.47;;
16665;SDS011;8446;50.998;6.250;2023-05-07T02:20:26;17.37;;;12.13;;
16665;SDS011;8446;50.998;6.250;2023-05-07T02:22:53;19.97;;;12.73;;
16665;SDS011;8446;50.998;6.250;2023-05-07T02:25:20;17.00;;;11.23;;
16665;SDS011;8446;50.998;6.250;2023-05-07T02:27:48;19.53;;;11.90;;
16665;SDS011;8446;50.998;6.250;2023-05-07T02:30:15;15.70;;;11.40;;
16665;SDS011;8446;50.998;6.250;2023-05-07T02:32:42;17.20;;;11.87;;
16665;SDS011;8446;50.998;6.250;2023-05-07T02:35:09;15.97;;;11.07;;
16665;SDS011;8446;50.998;6.250;2023-05-07T02:37:36;20.73;;;10.03;;
16665;SDS011;8446;50.998;6.250;2023-05-07T02:40:03;14.50;;;10.70;;
16665;SDS011;8446;50.998;6.250;2023-05-07T02:42:31;15.10;;;9.90;;
16665;SDS011;8446;50.998;6.250;2023-05-07T02:44:59;17.13;;;10.37;;
16665;SDS011;8446;50.998;6.250;2023-05-07T02:47:26;13.23;;;10.23;;
16665;SDS011;8446;50.998;6.250;2023-05-07T02:49:53;15.07;;;10.43;;
16665;SDS011;8446;50.998;6.250;2023-05-07T02:52:20;15.63;;;10.17;;
16665;SDS011;8446;50.998;6.250;2023-05-07T02:54:47;16.20;;;11.50;;
16665;SDS011;8446;50.998;6.250;2023-05-07T02:57:14;15.40;;;10.87;;
16665;SDS011;8446;50.998;6.250;2023-05-07T02:59:41;17.10;;;11.10;;
16665;SDS011;8446;50.998;6.250;2023-05-07T03:02:09;16.80;;;10.90;;
16665;SDS011;8446;50.998;6.250;2023-05-07T03:04:36;14.77;;;10.27;;
16665;SDS011;8446;50.998;6.250;2023-05-07T03:07:04;16.00;;;10.63;;
16665;SDS011;8446;50.998;6.250;2023-05-07T03:09:31;13.60;;;9.77;;
16665;SDS011;8446;50.998;6.250;2023-05-07T03:11:57;13.83;;;9.50;;
16665;SDS011;8446;50.998;6.250;2023-05-07T03:14:24;13.07;;;9.77;;
16665;SDS011;8446;50.998;6.250;2023-05-07T03:16:51;21.00;;;9.90;;
16665;SDS011;8446;50.998;6.250;2023-05-07T03:19:19;14.47;;;9.73;;
16665;SDS011;8446;50.998;6.250;2023-05-07T03:21:46;15.43;;;10.17;;
16665;SDS011;8446;50.998;6.250;2023-05-07T03:24:13;18.23;;;10.97;;
16665;SDS011;8446;50.998;6.250;2023-05-07T03:26:40;24.23;;;10.50;;
16665;SDS011;8446;50.998;6.250;2023-05-07T03:29:07;19.73;;;10.80;;
16665;SDS011;8446;50.998;6.250;2023-05-07T03:31:34;17.73;;;10.60;;
16665;SDS011;8446;50.998;6.250;2023-05-07T03:34:01;13.87;;;10.20;;
16665;SDS011;8446;50.998;6.250;2023-05-07T03:36:29;12.53;;;8.93;;
16665;SDS011;8446;50.998;6.250;2023-05-07T03:38:56;13.97;;;9.33;;
16665;SDS011;8446;50.998;6.250;2023-05-07T03:41:22;14.10;;;9.50;;
16665;SDS011;8446;50.998;6.250;2023-05-07T03:43:50;19.07;;;9.63;;
16665;SDS011;8446;50.998;6.250;2023-05-07T03:46:17;15.13;;;9.20;;
16665;SDS011;8446;50.998;6.250;2023-05-07T03:48:44;14.50;;;10.43;;
16665;SDS011;8446;50.998;6.250;2023-05-07T03:51:11;9.90;;;8.57;;
16665;SDS011;8446;50.998;6.250;2023-05-07T03:53:39;13.63;;;9.87;;
16665;SDS011;8446;50.998;6.250;2023-05-07T03:56:06;14.50;;;9.77;;
16665;SDS011;8446;50.998;6.250;2023-05-07T03:58:33;11.77;;;9.50;;
16665;SDS011;8446;50.998;6.250;2023-05-07T04:01:00;18.03;;;9.60;;
16665;SDS011;8446;50.998;6.250;2023-05-07T04:03:27;18.07;;;9.73;;
16665;SDS011;8446;50.998;6.250;2023-05-07T04:05:54;16.50;;;10.10;;
16665;SDS011;8446;50.998;6.250;2023-05-07T04:08:20;13.40;;;10.27;;
16665;SDS011;8446;50.998;6.250;2023-05-07T04:10:49;15.13;;;11.40;;
16665;SDS011;8446;50.998;6.250;2023-05-07T04:13:20;17.73;;;10.43;;
16665;SDS011;8446;50.998;6.250;2023-05-07T04:15:47;14.53;;;9.90;;
16665;SDS011;8446;50.998;6.250;2023-05-07T04:18:15;15.43;;;9.60;;
16665;SDS011;8446;50.998;6.250;2023-05-07T04:20:41;17.10;;;11.13;;
16665;SDS011;8446;50.998;6.250;2023-05-07T04:23:08;15.57;;;10.30;;
16665;SDS011;8446;50.998;6.250;2023-05-07T04:25:35;17.70;;;10.20;;
16665;SDS011;8446;50.998;6.250;2023-05-07T04:28:03;15.83;;;9.80;;
16665;SDS011;8446;50.998;6.250;2023-05-07T04:30:31;13.47;;;9.90;;
16665;SDS011;8446;50.998;6.250;2023-05-07T04:32:57;13.10;;;9.20;;
16665;SDS011;8446;50.998;6.250;2023-05-07T04:35:24;12.43;;;9.03;;
16665;SDS011;8446;50.998;6.250;2023-05-07T04:37:51;13.37;;;10.50;;
16665;SDS011;8446;50.998;6.250;2023-05-07T04:40:18;14.23;;;10.10;;
16665;SDS011;8446;50.998;6.250;2023-05-07T04:42:45;12.80;;;8.93;;
16665;SDS011;8446;50.998;6.250;2023-05-07T04:45:13;12.63;;;9.00;;
16665;SDS011;8446;50.998;6.250;2023-05-07T04:47:40;14.57;;;9.00;;
16665;SDS011;8446;50.998;6.250;2023-05-07T04:50:07;12.37;;;8.67;;
16665;SDS011;8446;50.998;6.250;2023-05-07T04:52:34;12.50;;;9.00;;
16665;SDS011;8446;50.998;6.250;2023-05-07T04:55:01;12.93;;;9.67;;
16665;SDS011;8446;50.998;6.250;2023-05-07T04:57:29;15.87;;;9.20;;
16665;SDS011;8446;50.998;6.250;2023-05-07T04:59:56;17.73;;;8.30;;
16665;SDS011;8446;50.998;6.250;2023-05-07T05:02:25;13.43;;;9.20;;
16665;SDS011;8446;50.998;6.250;2023-05-07T05:04:51;16.00;;;9.00;;
16665;SDS011;8446;50.998;6.250;2023-05-07T05:07:18;14.23;;;8.77;;
16665;SDS011;8446;50.998;6.250;2023-05-07T05:09:45;11.10;;;8.50;;
16665;SDS011;8446;50.998;6.250;2023-05-07T05:12:12;14.57;;;9.00;;
16665;SDS011;8446;50.998;6.250;2023-05-07T05:14:39;13.17;;;8.83;;
16665;SDS011;8446;50.998;6.250;2023-05-07T05:17:05;14.47;;;8.73;;
16665;SDS011;8446;50.998;6.250;2023-05-07T05:19:34;17.83;;;10.43;;
16665;SDS011;8446;50.998;6.250;2023-05-07T05:22:00;12.57;;;8.63;;
16665;SDS011;8446;50.998;6.250;2023-05-07T05:24:28;14.10;;;8.70;;
16665;SDS011;8446;50.998;6.250;2023-05-07T05:26:55;11.83;;;9.03;;
16665;SDS011;8446;50.998;6.250;2023-05-07T05:29:22;14.50;;;8.70;;
16665;SDS011;8446;50.998;6.250;2023-05-07T05:31:49;12.87;;;9.47;;
16665;SDS011;8446;50.998;6.250;2023-05-07T05:34:16;12.20;;;8.20;;
16665;SDS011;8446;50.998;6.250;2023-05-07T05:36:46;15.83;;;9.23;;
16665;SDS011;8446;50.998;6.250;2023-05-07T05:39:12;13.33;;;8.97;;
16665;SDS011;8446;50.998;6.250;2023-05-07T05:41:39;15.80;;;8.97;;
16665;SDS011;8446;50.998;6.250;2023-05-07T05:44:06;16.53;;;9.73;;
16665;SDS011;8446;50.998;6.250;2023-05-07T05:46:33;14.13;;;9.43;;
16665;SDS011;8446;50.998;6.250;2023-05-07T05:49:01;20.00;;;9.73;;
16665;SDS011;8446;50.998;6.250;2023-05-07T05:51:28;21.53;;;9.13;;
16665;SDS011;8446;50.998;6.250;2023-05-07T05:53:57;18.50;;;9.33;;
16665;SDS011;8446;50.998;6.250;2023-05-07T05:56:23;17.07;;;9.70;;
16665;SDS011;8446;50.998;6.250;2023-05-07T05:58:51;14.83;;;9.30;;
16665;SDS011;8446;50.998;6.250;2023-05-07T06:01:17;10.53;;;8.00;;
16665;SDS011;8446;50.998;6.250;2023-05-07T06:03:44;15.03;;;8.70;;
16665;SDS011;8446;50.998;6.250;2023-05-07T06:06:11;12.60;;;7.87;;
16665;SDS011;8446;50.998;6.250;2023-05-07T06:08:39;16.20;;;8.43;;
16665;SDS011;8446;50.998;6.250;2023-05-07T06:11:08;10.93;;;7.67;;
16665;SDS011;8446;50.998;6.250;2023-05-07T06:13:35;14.37;;;7.80;;
16665;SDS011;8446;50.998;6.250;2023-05-07T06:16:02;12.93;;;7.37;;
16665;SDS011;8446;50.998;6.250;2023-05-07T06:18:29;12.03;;;8.00;;
16665;SDS011;8446;50.998;6.250;2023-05-07T06:20:55;14.57;;;7.80;;
16665;SDS011;8446;50.998;6.250;2023-05-07T06:23:22;10.77;;;6.97;;
16665;SDS011;8446;50.998;6.250;2023-05-07T06:25:50;14.10;;;6.67;;
16665;SDS011;8446;50.998;6.250;2023-05-07T06:28:18;9.33;;;6.30;;
16665;SDS011;8446;50.998;6.250;2023-05-07T06:30:45;11.17;;;5.53;;
16665;SDS011;8446;50.998;6.250;2023-05-07T06:33:13;9.20;;;6.30;;
16665;SDS011;8446;50.998;6.250;2023-05-07T06:35:40;11.43;;;6.50;;
16665;SDS011;8446;50.998;6.250;2023-05-07T06:38:07;11.23;;;5.67;;
16665;SDS011;8446;50.998;6.250;2023-05-07T06:40:34;9.50;;;6.00;;
16665;SDS011;8446;50.998;6.250;2023-05-07T06:43:01;10.80;;;6.30;;
16665;SDS011;8446;50.998;6.250;2023-05-07T06:45:29;7.20;;;5.83;;
16665;SDS011;8446;50.998;6.250;2023-05-07T06:47:56;16.07;;;6.93;;
16665;SDS011;8446;50.998;6.250;2023-05-07T06:50:23;9.37;;;5.87;;
16665;SDS011;8446;50.998;6.250;2023-05-07T06:52:50;9.73;;;6.73;;
16665;SDS011;8446;50.998;6.250;2023-05-07T06:55:17;7.63;;;5.57;;
16665;SDS011;8446;50.998;6.250;2023-05-07T06:57:44;12.73;;;5.77;;
16665;SDS011;8446;50.998;6.250;2023-05-07T07:00:11;9.37;;;5.83;;
16665;SDS011;8446;50.998;6.250;2023-05-07T07:02:40;15.23;;;6.60;;
16665;SDS011;8446;50.998;6.250;2023-05-07T07:05:07;16.80;;;5.70;;
16665;SDS011;8446;50.998;6.250;2023-05-07T07:07:34;10.33;;;6.00;;
16665;SDS011;8446;50.998;6.250;2023-05-07T07:10:01;9.60;;;5.50;;
16665;SDS011;8446;50.998;6.250;2023-05-07T07:12:29;8.83;;;6.23;;
16665;SDS011;8446;50.998;6.250;2023-05-07T07:14:56;10.10;;;6.67;;
16665;SDS011;8446;50.998;6.250;2023-05-07T07:17:23;9.13;;;6.07;;
16665;SDS011;8446;50.998;6.250;2023-05-07T07:19:51;10.63;;;5.93;;
16665;SDS011;8446;50.998;6.250;2023-05-07T07:22:18;11.00;;;6.10;;
16665;SDS011;8446;50.998;6.250;2023-05-07T07:24:45;6.97;;;5.17;;
16665;SDS011;8446;50.998;6.250;2023-05-07T07:27:12;8.90;;;6.10;;
16665;SDS011;8446;50.998;6.250;2023-05-07T07:29:38;12.20;;;6.27;;
16665;SDS011;8446;50.998;6.250;2023-05-07T07:32:05;9.63;;;5.53;;
16665;SDS011;8446;50.998;6.250;2023-05-07T07:34:32;7.83;;;6.10;;
16665;SDS011;8446;50.998;6.250;2023-05-07T07:37:00;9.13;;;5.47;;
16665;SDS011;8446;50.998;6.250;2023-05-07T07:39:30;8.33;;;5.67;;
16665;SDS011;8446;50.998;6.250;2023-05-07T07:41:57;7.43;;;5.50;;
16665;SDS011;8446;50.998;6.250;2023-05-07T07:44:24;6.83;;;5.37;;
16665;SDS011;8446;50.998;6.250;2023-05-07T07:46:50;9.23;;;5.27;;
16665;SDS011;8446;50.998;6.250;2023-05-07T07:49:17;11.83;;;6.17;;
16665;SDS011;8446;50.998;6.250;2023-05-07T07:51:44;9.13;;;5.13;;
16665;SDS011;8446;50.998;6.250;2023-05-07T07:54:12;7.53;;;5.13;;
16665;SDS011;8446;50.998;6.250;2023-05-07T07:56:39;15.20;;;5.53;;
16665;SDS011;8446;50.998;6.250;2023-05-07T07:59:06;8.03;;;5.83;;
16665;SDS011;8446;50.998;6.250;2023-05-07T08:01:33;9.03;;;5.90;;
16665;SDS011;8446;50.998;6.250;2023-05-07T08:03:59;7.27;;;4.90;;
16665;SDS011;8446;50.998;6.250;2023-05-07T08:06:28;6.70;;;4.53;;
16665;SDS011;8446;50.998;6.250;2023-05-07T08:08:55;7.50;;;5.10;;
16665;SDS011;8446;50.998;6.250;2023-05-07T08:11:23;6.33;;;4.90;;
16665;SDS011;8446;50.998;6.250;2023-05-07T08:13:50;6.43;;;4.57;;
16665;SDS011;8446;50.998;6.250;2023-05-07T08:16:17;8.57;;;5.10;;
16665;SDS011;8446;50.998;6.250;2023-05-07T08:18:44;6.60;;;4.73;;
16665;SDS011;8446;50.998;6.250;2023-05-07T08:21:11;7.57;;;4.40;;
16665;SDS011;8446;50.998;6.250;2023-05-07T08:23:37;8.07;;;4.70;;
16665;SDS011;8446;50.998;6.250;2023-05-07T08:26:04;15.53;;;4.50;;
16665;SDS011;8446;50.998;6.250;2023-05-07T08:28:32;4.63;;;3.47;;
16665;SDS011;8446;50.998;6.250;2023-05-07T08:30:59;5.67;;;4.20;;
16665;SDS011;8446;50.998;6.250;2023-05-07T08:33:26;5.20;;;3.90;;
16665;SDS011;8446;50.998;6.250;2023-05-07T08:35:53;6.67;;;4.37;;
16665;SDS011;8446;50.998;6.250;2023-05-07T08:38:20;5.43;;;3.80;;
16665;SDS011;8446;50.998;6.250;2023-05-07T08:40:47;5.47;;;4.13;;
16665;SDS011;8446;50.998;6.250;2023-05-07T08:43:14;7.63;;;4.30;;
16665;SDS011;8446;50.998;6.250;2023-05-07T08:45:42;7.80;;;4.80;;
16665;SDS011;8446;50.998;6.250;2023-05-07T08:48:14;4.90;;;3.83;;
16665;SDS011;8446;50.998;6.250;2023-05-07T08:50:41;7.57;;;3.60;;
16665;SDS011;8446;50.998;6.250;2023-05-07T08:53:08;5.23;;;3.73;;
16665;SDS011;8446;50.998;6.250;2023-05-07T08:55:35;7.27;;;3.90;;
16665;SDS011;8446;50.998;6.250;2023-05-07T08:58:02;6.17;;;2.97;;
16665;SDS011;8446;50.998;6.250;2023-05-07T09:00:29;4.80;;;3.23;;
16665;SDS011;8446;50.998;6.250;2023-05-07T09:02:57;4.27;;;2.90;;
16665;SDS011;8446;50.998;6.250;2023-05-07T09:05:24;4.17;;;2.50;;
16665;SDS011;8446;50.998;6.250;2023-05-07T09:07:51;6.50;;;3.00;;
16665;SDS011;8446;50.998;6.250;2023-05-07T09:10:18;4.00;;;3.07;;
16665;SDS011;8446;50.998;6.250;2023-05-07T09:12:46;4.47;;;3.20;;
16665;SDS011;8446;50.998;6.250;2023-05-07T09:15:13;3.60;;;2.70;;
16665;SDS011;8446;50.998;6.250;2023-05-07T09:17:40;2.80;;;2.50;;
16665;SDS011;8446;50.998;6.250;2023-05-07T09:20:09;3.43;;;2.40;;
16665;SDS011;8446;50.998;6.250;2023-05-07T09:22:36;3.83;;;3.03;;
16665;SDS011;8446;50.998;6.250;2023-05-07T09:25:04;6.63;;;2.80;;
16665;SDS011;8446;50.998;6.250;2023-05-07T09:27:32;2.87;;;2.57;;
16665;SDS011;8446;50.998;6.250;2023-05-07T09:29:58;3.13;;;2.80;;
16665;SDS011;8446;50.998;6.250;2023-05-07T09:32:25;3.63;;;2.70;;
16665;SDS011;8446;50.998;6.250;2023-05-07T09:34:52;4.23;;;2.90;;
16665;SDS011;8446;50.998;6.250;2023-05-07T09:37:21;2.90;;;2.50;;
16665;SDS011;8446;50.998;6.250;2023-05-07T09:39:49;2.80;;;2.60;;
16665;SDS011;8446;50.998;6.250;2023-05-07T09:42:22;4.23;;;3.00;;
16665;SDS011;8446;50.998;6.250;2023-05-07T09:44:49;6.43;;;2.70;;
16665;SDS011;8446;50.998;6.250;2023-05-07T09:47:18;3.37;;;2.67;;
16665;SDS011;8446;50.998;6.250;2023-05-07T09:49:46;2.97;;;2.00;;
16665;SDS011;8446;50.998;6.250;2023-05-07T09:52:14;2.90;;;2.30;;
16665;SDS011;8446;50.998;6.250;2023-05-07T09:54:43;2.80;;;2.60;;
16665;SDS011;8446;50.998;6.250;2023-05-07T09:57:13;3.20;;;2.50;;
16665;SDS011;8446;50.998;6.250;2023-05-07T09:59:42;2.73;;;2.10;;
16665;SDS011;8446;50.998;6.250;2023-05-07T10:02:10;2.70;;;2.23;;
16665;SDS011;8446;50.998;6.250;2023-05-07T10:04:38;3.87;;;2.47;;
16665;SDS011;8446;50.998;6.250;2023-05-07T10:07:06;4.60;;;2.90;;
16665;SDS011;8446;50.998;6.250;2023-05-07T10:09:34;3.73;;;2.67;;
16665;SDS011;8446;50.998;6.250;2023-05-07T10:12:05;2.53;;;1.90;;
16665;SDS011;8446;50.998;6.250;2023-05-07T10:14:33;2.47;;;2.27;;
16665;SDS011;8446;50.998;6.250;2023-05-07T10:17:01;4.50;;;1.77;;
16665;SDS011;8446;50.998;6.250;2023-05-07T10:19:28;2.70;;;2.40;;
16665;SDS011;8446;50.998;6.250;2023-05-07T10:21:56;5.73;;;1.80;;
16665;SDS011;8446;50.998;6.250;2023-05-07T10:24:29;3.73;;;1.80;;
16665;SDS011;8446;50.998;6.250;2023-05-07T10:26:59;1.90;;;1.47;;
16665;SDS011;8446;50.998;6.250;2023-05-07T10:29:33;1.77;;;1.30;;
16665;SDS011;8446;50.998;6.250;2023-05-07T10:32:19;3.83;;;2.10;;
16665;SDS011;8446;50.998;6.250;2023-05-07T10:35:03;1.93;;;1.73;;
16665;SDS011;8446;50.998;6.250;2023-05-07T10:37:35;1.60;;;1.50;;
16665;SDS011;8446;50.998;6.250;2023-05-07T10:40:02;1.87;;;1.77;;
16665;SDS011;8446;50.998;6.250;2023-05-07T10:42:32;2.80;;;1.87;;
16665;SDS011;8446;50.998;6.250;2023-05-07T10:45:11;2.07;;;1.63;;
16665;SDS011;8446;50.998;6.250;2023-05-07T10:50:32;2.70;;;1.90;;
16665;SDS011;8446;50.998;6.250;2023-05-07T10:55:50;3.60;;;2.13;;
16665;SDS011;8446;50.998;6.250;2023-05-07T10:58:23;5.40;;;2.30;;
16665;SDS011;8446;50.998;6.250;2023-05-07T11:00:55;3.87;;;1.90;;
16665;SDS011;8446;50.998;6.250;2023-05-07T11:03:23;3.80;;;1.60;;
16665;SDS011;8446;50.998;6.250;2023-05-07T11:08:54;3.30;;;1.80;;
16665;SDS011;8446;50.998;6.250;2023-05-07T11:14:24;1.70;;;1.37;;
16665;SDS011;8446;50.998;6.250;2023-05-07T11:17:11;1.87;;;1.50;;
16665;SDS011;8446;50.998;6.250;2023-05-07T11:19:47;3.60;;;1.77;;
16665;SDS011;8446;50.998;6.250;2023-05-07T11:25:06;3.00;;;1.80;;
16665;SDS011;8446;50.998;6.250;2023-05-07T11:27:33;2.90;;;1.70;;
16665;SDS011;8446;50.998;6.250;2023-05-07T11:30:00;8.03;;;1.70;;
16665;SDS011;8446;50.998;6.250;2023-05-07T11:32:29;1.77;;;1.37;;
16665;SDS011;8446;50.998;6.250;2023-05-07T11:34:57;4.07;;;1.93;;
16665;SDS011;8446;50.998;6.250;2023-05-07T11:37:25;1.90;;;1.40;;
16665;SDS011;8446;50.998;6.250;2023-05-07T11:40:01;2.90;;;1.63;;
16665;SDS011;8446;50.998;6.250;2023-05-07T11:42:30;6.27;;;1.50;;
16665;SDS011;8446;50.998;6.250;2023-05-07T11:44:58;1.93;;;1.83;;
16665;SDS011;8446;50.998;6.250;2023-05-07T11:47:25;2.00;;;1.80;;
16665;SDS011;8446;50.998;6.250;2023-05-07T11:49:57;3.10;;;1.90;;
16665;SDS011;8446;50.998;6.250;2023-05-07T11:52:29;1.73;;;1.60;;
16665;SDS011;8446;50.998;6.250;2023-05-07T11:54:56;1.70;;;1.40;;
16665;SDS011;8446;50.998;6.250;2023-05-07T11:57:24;7.20;;;1.53;;
16665;SDS011;8446;50.998;6.250;2023-05-07T11:59:52;2.80;;;1.73;;
16665;SDS011;8446;50.998;6.250;2023-05-07T12:02:19;1.63;;;1.53;;
16665;SDS011;8446;50.998;6.250;2023-05-07T12:04:46;1.63;;;1.53;;
16665;SDS011;8446;50.998;6.250;2023-05-07T12:07:14;2.70;;;1.60;;
16665;SDS011;8446;50.998;6.250;2023-05-07T12:09:41;1.60;;;1.20;;
16665;SDS011;8446;50.998;6.250;2023-05-07T12:12:08;6.80;;;1.60;;
16665;SDS011;8446;50.998;6.250;2023-05-07T12:14:37;1.60;;;1.50;;
16665;SDS011;8446;50.998;6.250;2023-05-07T12:17:04;3.13;;;1.67;;
16665;SDS011;8446;50.998;6.250;2023-05-07T12:19:31;1.40;;;1.30;;
16665;SDS011;8446;50.998;6.250;2023-05-07T12:22:01;4.83;;;1.80;;
16665;SDS011;8446;50.998;6.250;2023-05-07T12:24:39;3.13;;;2.00;;
16665;SDS011;8446;50.998;6.250;2023-05-07T12:27:09;1.63;;;1.53;;
16665;SDS011;8446;50.998;6.250;2023-05-07T12:29:36;4.57;;;1.93;;
16665;SDS011;8446;50.998;6.250;2023-05-07T12:32:04;1.77;;;1.47;;
16665;SDS011;8446;50.998;6.250;2023-05-07T12:34:32;4.17;;;1.77;;
16665;SDS011;8446;50.998;6.250;2023-05-07T12:37:01;2.90;;;1.77;;
16665;SDS011;8446;50.998;6.250;2023-05-07T12:39:30;2.30;;;1.87;;
16665;SDS011;8446;50.998;6.250;2023-05-07T12:41:57;3.97;;;1.73;;
16665;SDS011;8446;50.998;6.250;2023-05-07T12:44:28;4.17;;;2.50;;
16665;SDS011;8446;50.998;6.250;2023-05-07T12:46:56;5.43;;;1.97;;
16665;SDS011;8446;50.998;6.250;2023-05-07T12:49:23;4.30;;;1.80;;
16665;SDS011;8446;50.998;6.250;2023-05-07T12:51:50;5.50;;;2.23;;
16665;SDS011;8446;50.998;6.250;2023-05-07T12:54:27;3.00;;;1.93;;
16665;SDS011;8446;50.998;6.250;2023-05-07T12:57:02;3.67;;;2.40;;
16665;SDS011;8446;50.998;6.250;2023-05-07T12:59:31;8.83;;;4.40;;
16665;SDS011;8446;50.998;6.250;2023-05-07T13:01:58;7.50;;;4.87;;
16665;SDS011;8446;50.998;6.250;2023-05-07T13:04:25;3.80;;;1.70;;
16665;SDS011;8446;50.998;6.250;2023-05-07T13:06:51;5.63;;;2.63;;
16665;SDS011;8446;50.998;6.250;2023-05-07T13:09:18;5.50;;;2.70;;
16665;SDS011;8446;50.998;6.250;2023-05-07T13:11:46;15.70;;;2.03;;
16665;SDS011;8446;50.998;6.250;2023-05-07T13:14:13;5.73;;;2.17;;
16665;SDS011;8446;50.998;6.250;2023-05-07T13:16:40;2.60;;;1.77;;
16665;SDS011;8446;50.998;6.250;2023-05-07T13:19:07;8.03;;;2.00;;
16665;SDS011;8446;50.998;6.250;2023-05-07T13:21:33;8.03;;;2.03;;
16665;SDS011;8446;50.998;6.250;2023-05-07T13:24:00;8.33;;;2.30;;
16665;SDS011;8446;50.998;6.250;2023-05-07T13:26:27;7.77;;;3.13;;
16665;SDS011;8446;50.998;6.250;2023-05-07T13:28:57;6.03;;;2.40;;
16665;SDS011;8446;50.998;6.250;2023-05-07T13:31:24;4.53;;;2.40;;
16665;SDS011;8446;50.998;6.250;2023-05-07T13:33:51;5.80;;;2.07;;
16665;SDS011;8446;50.998;6.250;2023-05-07T13:36:18;1.93;;;1.83;;
16665;SDS011;8446;50.998;6.250;2023-05-07T13:38:45;1.73;;;1.37;;
16665;SDS011;8446;50.998;6.250;2023-05-07T13:41:12;4.53;;;2.30;;
16665;SDS011;8446;50.998;6.250;2023-05-07T13:43:39;5.53;;;1.70;;
16665;SDS011;8446;50.998;6.250;2023-05-07T13:46:07;3.80;;;1.90;;
16665;SDS011;8446;50.998;6.250;2023-05-07T13:48:34;9.83;;;1.77;;
16665;SDS011;8446;50.998;6.250;2023-05-07T13:51:01;7.40;;;2.03;;
16665;SDS011;8446;50.998;6.250;2023-05-07T13:53:28;2.07;;;1.70;;
16665;SDS011;8446;50.998;6.250;2023-05-07T13:55:54;3.30;;;2.10;;
16665;SDS011;8446;50.998;6.250;2023-05-07T13:58:21;3.27;;;2.40;;
16665;SDS011;8446;50.998;6.250;2023-05-07T14:00:48;6.03;;;2.60;;
16665;SDS011;8446;50.998;6.250;2023-05-07T14:03:16;3.20;;;2.90;;
16665;SDS011;8446;50.998;6.250;2023-05-07T14:05:44;3.47;;;2.80;;
16665;SDS011;8446;50.998;6.250;2023-05-07T14:08:11;6.77;;;2.73;;
16665;SDS011;8446;50.998;6.250;2023-05-07T14:10:38;4.80;;;3.17;;
16665;SDS011;8446;50.998;6.250;2023-05-07T14:13:05;3.57;;;3.10;;
16665;SDS011;8446;50.998;6.250;2023-05-07T14:15:32;5.57;;;3.20;;
16665;SDS011;8446;50.998;6.250;2023-05-07T14:17:59;4.43;;;3.17;;
16665;SDS011;8446;50.998;6.250;2023-05-07T14:20:28;5.47;;;3.30;;
16665;SDS011;8446;50.998;6.250;2023-05-07T14:22:55;4.43;;;3.37;;
16665;SDS011;8446;50.998;6.250;2023-05-07T14:25:22;6.70;;;3.10;;
16665;SDS011;8446;50.998;6.250;2023-05-07T14:27:49;4.47;;;3.03;;
16665;SDS011;8446;50.998;6.250;2023-05-07T14:30:16;5.97;;;3.43;;
16665;SDS011;8446;50.998;6.250;2023-05-07T14:32:42;5.73;;;3.57;;
16665;SDS011;8446;50.998;6.250;2023-05-07T14:35:09;6.07;;;4.33;;
16665;SDS011;8446;50.998;6.250;2023-05-07T14:37:37;6.40;;;4.53;;
16665;SDS011;8446;50.998;6.250;2023-05-07T14:40:05;8.63;;;5.13;;
16665;SDS011;8446;50.998;6.250;2023-05-07T14:42:32;6.43;;;4.77;;
16665;SDS011;8446;50.998;6.250;2023-05-07T14:44:59;9.20;;;6.73;;
16665;SDS011;8446;50.998;6.250;2023-05-07T14:47:26;10.50;;;6.97;;
16665;SDS011;8446;50.998;6.250;2023-05-07T14:49:53;9.43;;;6.10;;
16665;SDS011;8446;50.998;6.250;2023-05-07T14:52:22;11.60;;;6.60;;
16665;SDS011;8446;50.998;6.250;2023-05-07T14:54:50;14.13;;;7.67;;
16665;SDS011;8446;50.998;6.250;2023-05-07T14:57:17;15.03;;;8.40;;
16665;SDS011;8446;50.998;6.250;2023-05-07T14:59:44;8.13;;;5.50;;
16665;SDS011;8446;50.998;6.250;2023-05-07T15:02:12;12.03;;;5.40;;
16665;SDS011;8446;50.998;6.250;2023-05-07T15:04:39;6.60;;;4.87;;
16665;SDS011;8446;50.998;6.250;2023-05-07T15:07:10;8.53;;;4.53;;
16665;SDS011;8446;50.998;6.250;2023-05-07T15:09:39;5.80;;;4.40;;
16665;SDS011;8446;50.998;6.250;2023-05-07T15:12:08;9.00;;;5.83;;